sensor_id;sensor_type;location;lat;lon;timestamp;temperature;humidity
12049;DHT22;6085;49.452;8.502;2023-10-31T00:00:40;11.10;99.90
12049;DHT22;6085;49.452;8.502;2023-10-31T00:04:43;11.00;99.90
12049;DHT22;6085;49.452;8.502;2023-10-31T00:08:45;10.90;99.90
12049;DHT22;6085;49.452;8.502;2023-10-31T00:12:47;10.90;99.90
12049;DHT22;6085;49.452;8.502;2023-10-31T00:16:48;10.90;99.90
12049;DHT22;6085;49.452;8.502;2023-10-31T00:20:52;10.90;99.90
12049;DHT22;6085;49.452;8.502;2023-10-31T00:24:54;10.90;99.90
12049;DHT22;6085;49.452;8.502;2023-10-31T00:28:55;10.80;99.90
12049;DHT22;6085;49.452;8.502;2023-10-31T00:32:57;10.90;99.90
12049;DHT22;6085;49.452;8.502;2023-10-31T00:37:01;10.80;99.90
12049;DHT22;6085;49.452;8.502;2023-10-31T00:41:03;10.80;99.90
12049;DHT22;6085;49.452;8.502;2023-10-31T00:45:06;10.90;99.90
12049;DHT22;6085;49.452;8.502;2023-10-31T00:49:08;11.00;99.90
12049;DHT22;6085;49.452;8.502;2023-10-31T00:53:11;11.00;99.90
12049;DHT22;6085;49.452;8.502;2023-10-31T00:57:15;11.10;99.90
12049;DHT22;6085;49.452;8.502;2023-10-31T01:01:17;11.10;99.90
12049;DHT22;6085;49.452;8.502;2023-10-31T01:05:19;10.90;99.90
12049;DHT22;6085;49.452;8.502;2023-10-31T01:09:22;10.80;99.90
12049;DHT22;6085;49.452;8.502;2023-10-31T01:13:27;10.70;99.90
12049;DHT22;6085;49.452;8.502;2023-10-31T01:17:29;10.60;99.90
12049;DHT22;6085;49.452;8.502;2023-10-31T01:21:31;10.60;99.90
12049;DHT22;6085;49.452;8.502;2023-10-31T01:25:34;10.70;99.90
12049;DHT22;6085;49.452;8.502;2023-10-31T01:29:36;10.60;99.90
12049;DHT22;6085;49.452;8.502;2023-10-31T01:33:38;10.50;99.90
12049;DHT22;6085;49.452;8.502;2023-10-31T01:37:39;10.50;99.90
12049;DHT22;6085;49.452;8.502;2023-10-31T01:41:43;10.40;99.90
12049;DHT22;6085;49.452;8.502;2023-10-31T01:45:45;10.30;99.90
12049;DHT22;6085;49.452;8.502;2023-10-31T01:49:47;10.30;99.90
12049;DHT22;6085;49.452;8.502;2023-10-31T01:53:49;10.40;99.90
12049;DHT22;6085;49.452;8.502;2023-10-31T01:57:53;10.40;99.90
12049;DHT22;6085;49.452;8.502;2023-10-31T02:01:57;10.40;99.90
12049;DHT22;6085;49.452;8.502;2023-10-31T02:05:59;10.40;99.90
12049;DHT22;6085;49.452;8.502;2023-10-31T02:10:01;10.40;99.90
12049;DHT22;6085;49.452;8.502;2023-10-31T02:14:04;10.40;99.90
12049;DHT22;6085;49.452;8.502;2023-10-31T02:18:07;10.40;99.90
12049;DHT22;6085;49.452;8.502;2023-10-31T02:22:10;10.40;99.90
12049;DHT22;6085;49.452;8.502;2023-10-31T02:26:14;10.40;99.90
12049;DHT22;6085;49.452;8.502;2023-10-31T02:30:16;10.50;99.90
12049;DHT22;6085;49.452;8.502;2023-10-31T02:34:18;10.50;99.90
12049;DHT22;6085;49.452;8.502;2023-10-31T02:38:21;10.50;99.90
12049;DHT22;6085;49.452;8.502;2023-10-31T02:42:23;10.40;99.90
12049;DHT22;6085;49.452;8.502;2023-10-31T02:46:25;10.40;99.90
12049;DHT22;6085;49.452;8.502;2023-10-31T02:50:27;10.40;99.90
12049;DHT22;6085;49.452;8.502;2023-10-31T02:54:30;10.50;99.90
12049;DHT22;6085;49.452;8.502;2023-10-31T02:58:34;10.60;99.90
12049;DHT22;6085;49.452;8.502;2023-10-31T03:02:35;10.60;99.90
12049;DHT22;6085;49.452;8.502;2023-10-31T03:06:37;10.60;99.90
12049;DHT22;6085;49.452;8.502;2023-10-31T03:10:41;10.60;99.90
12049;DHT22;6085;49.452;8.502;2023-10-31T03:14:43;10.60;99.90
12049;DHT22;6085;49.452;8.502;2023-10-31T03:18:45;10.50;99.90
12049;DHT22;6085;49.452;8.502;2023-10-31T03:22:47;10.40;99.90
12049;DHT22;6085;49.452;8.502;2023-10-31T03:26:54;10.20;99.90
12049;DHT22;6085;49.452;8.502;2023-10-31T03:30:56;10.10;99.90
12049;DHT22;6085;49.452;8.502;2023-10-31T03:34:57;10.10;99.90
12049;DHT22;6085;49.452;8.502;2023-10-31T03:38:59;10.10;99.90
12049;DHT22;6085;49.452;8.502;2023-10-31T03:43:03;10.30;99.90
12049;DHT22;6085;49.452;8.502;2023-10-31T03:47:05;10.30;99.90
12049;DHT22;6085;49.452;8.502;2023-10-31T03:51:07;10.20;99.90
12049;DHT22;6085;49.452;8.502;2023-10-31T03:55:08;10.20;99.90
12049;DHT22;6085;49.452;8.502;2023-10-31T03:59:12;10.30;99.90
12049;DHT22;6085;49.452;8.502;2023-10-31T04:03:14;10.40;99.90
12049;DHT22;6085;49.452;8.502;2023-10-31T04:07:16;10.50;99.90
12049;DHT22;6085;49.452;8.502;2023-10-31T04:11:18;10.50;99.90
12049;DHT22;6085;49.452;8.502;2023-10-31T04:15:24;10.50;99.90
12049;DHT22;6085;49.452;8.502;2023-10-31T04:19:26;10.50;99.90
12049;DHT22;6085;49.452;8.502;2023-10-31T04:23:28;10.50;99.90
12049;DHT22;6085;49.452;8.502;2023-10-31T04:27:29;10.50;99.90
12049;DHT22;6085;49.452;8.502;2023-10-31T04:31:33;10.50;99.90
12049;DHT22;6085;49.452;8.502;2023-10-31T04:35:35;10.60;99.90
12049;DHT22;6085;49.452;8.502;2023-10-31T04:39:36;10.60;99.90
12049;DHT22;6085;49.452;8.502;2023-10-31T04:43:39;10.70;99.90
12049;DHT22;6085;49.452;8.502;2023-10-31T04:47:43;10.70;99.90
12049;DHT22;6085;49.452;8.502;2023-10-31T04:51:45;10.70;99.90
12049;DHT22;6085;49.452;8.502;2023-10-31T04:55:47;10.70;99.90
12049;DHT22;6085;49.452;8.502;2023-10-31T04:59:49;10.70;99.90
12049;DHT22;6085;49.452;8.502;2023-10-31T05:03:53;10.60;99.90
12049;DHT22;6085;49.452;8.502;2023-10-31T05:07:55;10.60;99.90
12049;DHT22;6085;49.452;8.502;2023-10-31T05:11:56;10.60;99.90
12049;DHT22;6085;49.452;8.502;2023-10-31T05:15:58;10.60;99.90
12049;DHT22;6085;49.452;8.502;2023-10-31T05:20:02;10.60;99.90
12049;DHT22;6085;49.452;8.502;2023-10-31T05:24:05;10.50;99.90
12049;DHT22;6085;49.452;8.502;2023-10-31T05:28:07;10.60;99.90
12049;DHT22;6085;49.452;8.502;2023-10-31T05:32:09;10.50;99.90
12049;DHT22;6085;49.452;8.502;2023-10-31T05:36:22;10.50;99.90
12049;DHT22;6085;49.452;8.502;2023-10-31T05:40:25;10.50;99.90
12049;DHT22;6085;49.452;8.502;2023-10-31T05:44:28;10.50;99.90
12049;DHT22;6085;49.452;8.502;2023-10-31T05:48:31;10.50;99.90
12049;DHT22;6085;49.452;8.502;2023-10-31T05:52:34;10.50;99.90
12049;DHT22;6085;49.452;8.502;2023-10-31T05:56:36;10.60;99.90
12049;DHT22;6085;49.452;8.502;2023-10-31T06:00:38;10.60;99.90
12049;DHT22;6085;49.452;8.502;2023-10-31T06:04:40;10.50;99.90
12049;DHT22;6085;49.452;8.502;2023-10-31T06:08:44;10.50;99.90
12049;DHT22;6085;49.452;8.502;2023-10-31T06:12:46;10.50;99.90
12049;DHT22;6085;49.452;8.502;2023-10-31T06:16:48;10.50;99.90
12049;DHT22;6085;49.452;8.502;2023-10-31T06:20:50;10.50;99.90
12049;DHT22;6085;49.452;8.502;2023-10-31T06:24:54;10.50;99.90
12049;DHT22;6085;49.452;8.502;2023-10-31T06:28:56;10.50;99.90
12049;DHT22;6085;49.452;8.502;2023-10-31T06:32:58;10.50;99.90
12049;DHT22;6085;49.452;8.502;2023-10-31T06:37:01;10.50;99.90
12049;DHT22;6085;49.452;8.502;2023-10-31T06:41:05;10.50;99.90
12049;DHT22;6085;49.452;8.502;2023-10-31T06:45:07;10.50;99.90
12049;DHT22;6085;49.452;8.502;2023-10-31T06:49:09;10.40;99.90
12049;DHT22;6085;49.452;8.502;2023-10-31T06:53:11;10.50;99.90
12049;DHT22;6085;49.452;8.502;2023-10-31T06:57:15;10.50;99.90
12049;DHT22;6085;49.452;8.502;2023-10-31T07:01:17;10.50;99.90
12049;DHT22;6085;49.452;8.502;2023-10-31T07:05:20;10.60;99.90
12049;DHT22;6085;49.452;8.502;2023-10-31T07:09:21;10.60;99.90
12049;DHT22;6085;49.452;8.502;2023-10-31T07:13:25;10.60;99.90
12049;DHT22;6085;49.452;8.502;2023-10-31T07:17:26;10.60;99.90
12049;DHT22;6085;49.452;8.502;2023-10-31T07:21:28;10.60;99.90
12049;DHT22;6085;49.452;8.502;2023-10-31T07:25:30;10.70;99.90
12049;DHT22;6085;49.452;8.502;2023-10-31T07:29:33;10.70;99.90
12049;DHT22;6085;49.452;8.502;2023-10-31T07:33:35;10.70;99.90
12049;DHT22;6085;49.452;8.502;2023-10-31T07:37:40;10.80;99.90
12049;DHT22;6085;49.452;8.502;2023-10-31T07:41:41;10.80;99.90
12049;DHT22;6085;49.452;8.502;2023-10-31T07:45:45;10.80;99.90
12049;DHT22;6085;49.452;8.502;2023-10-31T07:49:47;10.90;99.90
12049;DHT22;6085;49.452;8.502;2023-10-31T07:53:49;10.90;99.90
12049;DHT22;6085;49.452;8.502;2023-10-31T07:57:51;11.00;99.90
12049;DHT22;6085;49.452;8.502;2023-10-31T08:01:55;11.10;99.90
12049;DHT22;6085;49.452;8.502;2023-10-31T08:05:57;11.30;99.90
12049;DHT22;6085;49.452;8.502;2023-10-31T08:10:00;11.40;99.90
12049;DHT22;6085;49.452;8.502;2023-10-31T08:14:04;11.50;99.90
12049;DHT22;6085;49.452;8.502;2023-10-31T08:18:07;11.50;99.90
12049;DHT22;6085;49.452;8.502;2023-10-31T08:22:09;11.50;99.90
12049;DHT22;6085;49.452;8.502;2023-10-31T08:26:11;11.40;99.90
12049;DHT22;6085;49.452;8.502;2023-10-31T08:30:13;11.50;99.90
12049;DHT22;6085;49.452;8.502;2023-10-31T08:34:17;11.50;99.90
12049;DHT22;6085;49.452;8.502;2023-10-31T08:38:19;11.70;99.90
12049;DHT22;6085;49.452;8.502;2023-10-31T08:42:20;11.90;99.90
12049;DHT22;6085;49.452;8.502;2023-10-31T08:46:22;12.10;99.90
12049;DHT22;6085;49.452;8.502;2023-10-31T08:50:26;12.30;99.90
12049;DHT22;6085;49.452;8.502;2023-10-31T08:54:28;12.40;99.90
12049;DHT22;6085;49.452;8.502;2023-10-31T08:58:30;12.40;99.90
12049;DHT22;6085;49.452;8.502;2023-10-31T09:02:32;12.50;99.90
12049;DHT22;6085;49.452;8.502;2023-10-31T09:06:35;12.60;99.90
12049;DHT22;6085;49.452;8.502;2023-10-31T09:10:37;12.60;99.90
12049;DHT22;6085;49.452;8.502;2023-10-31T09:14:39;12.60;99.90
12049;DHT22;6085;49.452;8.502;2023-10-31T09:18:42;12.70;99.90
12049;DHT22;6085;49.452;8.502;2023-10-31T09:22:45;12.80;99.90
12049;DHT22;6085;49.452;8.502;2023-10-31T09:26:49;13.00;99.90
12049;DHT22;6085;49.452;8.502;2023-10-31T09:30:51;13.40;99.90
12049;DHT22;6085;49.452;8.502;2023-10-31T09:34:53;13.90;99.90
12049;DHT22;6085;49.452;8.502;2023-10-31T09:38:56;14.60;99.90
12049;DHT22;6085;49.452;8.502;2023-10-31T09:42:58;14.70;99.90
12049;DHT22;6085;49.452;8.502;2023-10-31T09:47:01;14.60;99.90
12049;DHT22;6085;49.452;8.502;2023-10-31T09:51:05;14.50;99.90
12049;DHT22;6085;49.452;8.502;2023-10-31T09:55:09;14.60;99.90
12049;DHT22;6085;49.452;8.502;2023-10-31T09:59:14;14.60;99.90
12049;DHT22;6085;49.452;8.502;2023-10-31T10:03:16;14.30;99.90
12049;DHT22;6085;49.452;8.502;2023-10-31T10:07:19;14.40;99.90
12049;DHT22;6085;49.452;8.502;2023-10-31T10:11:22;14.40;99.90
12049;DHT22;6085;49.452;8.502;2023-10-31T10:15:24;14.30;99.90
12049;DHT22;6085;49.452;8.502;2023-10-31T10:19:26;14.30;99.90
12049;DHT22;6085;49.452;8.502;2023-10-31T10:23:29;14.30;99.90
12049;DHT22;6085;49.452;8.502;2023-10-31T10:27:32;14.40;99.90
12049;DHT22;6085;49.452;8.502;2023-10-31T10:31:34;14.40;99.90
12049;DHT22;6085;49.452;8.502;2023-10-31T10:35:36;14.30;99.90
12049;DHT22;6085;49.452;8.502;2023-10-31T10:39:40;14.10;99.90
12049;DHT22;6085;49.452;8.502;2023-10-31T10:43:45;14.10;99.90
12049;DHT22;6085;49.452;8.502;2023-10-31T10:47:50;14.20;99.90
12049;DHT22;6085;49.452;8.502;2023-10-31T10:51:58;14.10;99.90
12049;DHT22;6085;49.452;8.502;2023-10-31T10:56:07;14.20;99.90
12049;DHT22;6085;49.452;8.502;2023-10-31T11:00:13;14.10;99.90
12049;DHT22;6085;49.452;8.502;2023-10-31T11:04:17;14.00;99.90
12049;DHT22;6085;49.452;8.502;2023-10-31T11:08:20;14.10;99.90
12049;DHT22;6085;49.452;8.502;2023-10-31T11:12:25;14.30;99.90
12049;DHT22;6085;49.452;8.502;2023-10-31T11:16:33;14.50;99.90
12049;DHT22;6085;49.452;8.502;2023-10-31T11:20:36;14.30;99.90
12049;DHT22;6085;49.452;8.502;2023-10-31T11:24:38;14.50;99.90
12049;DHT22;6085;49.452;8.502;2023-10-31T11:28:42;14.50;99.90
12049;DHT22;6085;49.452;8.502;2023-10-31T11:32:49;14.50;99.90
12049;DHT22;6085;49.452;8.502;2023-10-31T11:36:51;14.70;99.90
12049;DHT22;6085;49.452;8.502;2023-10-31T11:41:03;14.80;99.90
12049;DHT22;6085;49.452;8.502;2023-10-31T11:45:08;14.90;99.90
12049;DHT22;6085;49.452;8.502;2023-10-31T11:49:12;14.80;99.90
12049;DHT22;6085;49.452;8.502;2023-10-31T11:53:14;14.70;99.90
12049;DHT22;6085;49.452;8.502;2023-10-31T11:57:26;14.60;99.90
12049;DHT22;6085;49.452;8.502;2023-10-31T12:01:29;14.70;99.90
12049;DHT22;6085;49.452;8.502;2023-10-31T12:05:32;15.30;99.90
12049;DHT22;6085;49.452;8.502;2023-10-31T12:09:45;15.80;99.90
12049;DHT22;6085;49.452;8.502;2023-10-31T12:13:55;16.00;99.90
12049;DHT22;6085;49.452;8.502;2023-10-31T12:18:00;15.70;99.90
12049;DHT22;6085;49.452;8.502;2023-10-31T12:22:12;15.70;99.90
12049;DHT22;6085;49.452;8.502;2023-10-31T12:26:21;15.30;99.90
12049;DHT22;6085;49.452;8.502;2023-10-31T12:30:23;14.80;99.90
12049;DHT22;6085;49.452;8.502;2023-10-31T12:34:25;14.60;99.90
12049;DHT22;6085;49.452;8.502;2023-10-31T12:38:28;14.80;99.90
12049;DHT22;6085;49.452;8.502;2023-10-31T12:42:31;15.30;99.90
12049;DHT22;6085;49.452;8.502;2023-10-31T12:46:33;15.80;99.90
12049;DHT22;6085;49.452;8.502;2023-10-31T12:50:37;15.90;99.90
12049;DHT22;6085;49.452;8.502;2023-10-31T12:54:42;15.80;99.90
12049;DHT22;6085;49.452;8.502;2023-10-31T12:58:45;15.60;99.90
12049;DHT22;6085;49.452;8.502;2023-10-31T13:02:47;15.10;99.90
12049;DHT22;6085;49.452;8.502;2023-10-31T13:06:55;14.90;99.90
12049;DHT22;6085;49.452;8.502;2023-10-31T13:10:58;14.70;99.90
12049;DHT22;6085;49.452;8.502;2023-10-31T13:15:02;14.70;99.90
12049;DHT22;6085;49.452;8.502;2023-10-31T13:19:04;14.70;99.90
12049;DHT22;6085;49.452;8.502;2023-10-31T13:23:06;14.80;99.90
12049;DHT22;6085;49.452;8.502;2023-10-31T13:27:09;15.40;99.90
12049;DHT22;6085;49.452;8.502;2023-10-31T13:31:16;16.90;99.90
12049;DHT22;6085;49.452;8.502;2023-10-31T13:35:18;18.20;99.90
12049;DHT22;6085;49.452;8.502;2023-10-31T13:39:20;18.30;99.90
12049;DHT22;6085;49.452;8.502;2023-10-31T13:43:23;17.20;99.90
12049;DHT22;6085;49.452;8.502;2023-10-31T13:47:25;16.50;99.90
12049;DHT22;6085;49.452;8.502;2023-10-31T13:51:27;15.70;99.90
12049;DHT22;6085;49.452;8.502;2023-10-31T13:55:29;15.30;99.90
12049;DHT22;6085;49.452;8.502;2023-10-31T13:59:32;15.00;99.90
12049;DHT22;6085;49.452;8.502;2023-10-31T14:03:35;14.80;99.90
12049;DHT22;6085;49.452;8.502;2023-10-31T14:07:37;14.70;99.90
12049;DHT22;6085;49.452;8.502;2023-10-31T14:11:40;14.60;99.90
12049;DHT22;6085;49.452;8.502;2023-10-31T14:15:43;14.50;99.90
12049;DHT22;6085;49.452;8.502;2023-10-31T14:19:45;14.50;99.90
12049;DHT22;6085;49.452;8.502;2023-10-31T14:23:47;14.40;99.90
12049;DHT22;6085;49.452;8.502;2023-10-31T14:27:54;14.30;99.90
12049;DHT22;6085;49.452;8.502;2023-10-31T14:32:01;14.10;99.90
12049;DHT22;6085;49.452;8.502;2023-10-31T14:36:07;14.00;99.90
12049;DHT22;6085;49.452;8.502;2023-10-31T14:40:11;13.90;99.90
12049;DHT22;6085;49.452;8.502;2023-10-31T14:44:13;13.90;99.90
12049;DHT22;6085;49.452;8.502;2023-10-31T14:48:16;13.80;99.90
12049;DHT22;6085;49.452;8.502;2023-10-31T14:52:18;13.60;99.90
12049;DHT22;6085;49.452;8.502;2023-10-31T14:56:21;13.50;99.90
12049;DHT22;6085;49.452;8.502;2023-10-31T15:00:24;13.40;99.90
12049;DHT22;6085;49.452;8.502;2023-10-31T15:04:27;13.10;99.90
12049;DHT22;6085;49.452;8.502;2023-10-31T15:08:29;12.90;99.90
12049;DHT22;6085;49.452;8.502;2023-10-31T15:12:31;12.80;99.90
12049;DHT22;6085;49.452;8.502;2023-10-31T15:16:33;12.70;99.90
12049;DHT22;6085;49.452;8.502;2023-10-31T15:20:36;12.60;99.90
12049;DHT22;6085;49.452;8.502;2023-10-31T15:24:38;12.50;99.90
12049;DHT22;6085;49.452;8.502;2023-10-31T15:28:40;12.40;99.90
12049;DHT22;6085;49.452;8.502;2023-10-31T15:32:43;12.40;99.90
12049;DHT22;6085;49.452;8.502;2023-10-31T15:36:46;12.50;99.90
12049;DHT22;6085;49.452;8.502;2023-10-31T15:40:48;12.50;99.90
12049;DHT22;6085;49.452;8.502;2023-10-31T15:44:50;12.60;99.90
12049;DHT22;6085;49.452;8.502;2023-10-31T15:48:52;12.60;99.90
12049;DHT22;6085;49.452;8.502;2023-10-31T15:52:55;12.50;99.90
12049;DHT22;6085;49.452;8.502;2023-10-31T15:56:58;12.50;99.90
12049;DHT22;6085;49.452;8.502;2023-10-31T16:01:00;12.50;99.90
12049;DHT22;6085;49.452;8.502;2023-10-31T16:05:02;12.50;99.90
12049;DHT22;6085;49.452;8.502;2023-10-31T16:09:05;12.50;99.90
12049;DHT22;6085;49.452;8.502;2023-10-31T16:13:07;12.50;99.90
12049;DHT22;6085;49.452;8.502;2023-10-31T16:17:09;12.40;99.90
12049;DHT22;6085;49.452;8.502;2023-10-31T16:21:18;12.40;99.90
12049;DHT22;6085;49.452;8.502;2023-10-31T16:25:21;12.40;99.90
12049;DHT22;6085;49.452;8.502;2023-10-31T16:29:23;12.30;99.90
12049;DHT22;6085;49.452;8.502;2023-10-31T16:33:26;12.30;99.90
12049;DHT22;6085;49.452;8.502;2023-10-31T16:37:29;12.20;99.90
12049;DHT22;6085;49.452;8.502;2023-10-31T16:41:32;12.20;99.90
12049;DHT22;6085;49.452;8.502;2023-10-31T16:45:34;12.10;99.90
12049;DHT22;6085;49.452;8.502;2023-10-31T16:49:36;12.10;99.90
12049;DHT22;6085;49.452;8.502;2023-10-31T16:53:38;12.10;99.90
12049;DHT22;6085;49.452;8.502;2023-10-31T16:57:42;12.10;99.90
12049;DHT22;6085;49.452;8.502;2023-10-31T17:01:43;12.00;99.90
12049;DHT22;6085;49.452;8.502;2023-10-31T17:05:46;12.00;99.90
12049;DHT22;6085;49.452;8.502;2023-10-31T17:09:47;12.00;99.90
12049;DHT22;6085;49.452;8.502;2023-10-31T17:13:51;12.00;99.90
12049;DHT22;6085;49.452;8.502;2023-10-31T17:17:53;11.90;99.90
12049;DHT22;6085;49.452;8.502;2023-10-31T17:21:56;11.90;99.90
12049;DHT22;6085;49.452;8.502;2023-10-31T17:25:59;11.90;99.90
12049;DHT22;6085;49.452;8.502;2023-10-31T17:30:03;11.90;99.90
12049;DHT22;6085;49.452;8.502;2023-10-31T17:34:06;11.90;99.90
12049;DHT22;6085;49.452;8.502;2023-10-31T17:38:08;11.90;99.90
12049;DHT22;6085;49.452;8.502;2023-10-31T17:42:10;11.90;99.90
12049;DHT22;6085;49.452;8.502;2023-10-31T17:46:14;11.90;99.90
12049;DHT22;6085;49.452;8.502;2023-10-31T17:50:16;11.80;99.90
12049;DHT22;6085;49.452;8.502;2023-10-31T17:54:18;11.80;99.90
12049;DHT22;6085;49.452;8.502;2023-10-31T17:58:20;11.80;99.90
12049;DHT22;6085;49.452;8.502;2023-10-31T18:02:24;11.80;99.90
12049;DHT22;6085;49.452;8.502;2023-10-31T18:06:26;11.80;99.90
12049;DHT22;6085;49.452;8.502;2023-10-31T18:10:29;11.80;99.90
12049;DHT22;6085;49.452;8.502;2023-10-31T18:14:31;11.80;99.90
12049;DHT22;6085;49.452;8.502;2023-10-31T18:18:34;11.70;99.90
12049;DHT22;6085;49.452;8.502;2023-10-31T18:22:37;11.60;99.90
12049;DHT22;6085;49.452;8.502;2023-10-31T18:26:39;11.60;99.90
12049;DHT22;6085;49.452;8.502;2023-10-31T18:30:42;11.60;99.90
12049;DHT22;6085;49.452;8.502;2023-10-31T18:34:45;11.50;99.90
12049;DHT22;6085;49.452;8.502;2023-10-31T18:38:47;11.50;99.90
12049;DHT22;6085;49.452;8.502;2023-10-31T18:42:49;11.60;99.90
12049;DHT22;6085;49.452;8.502;2023-10-31T18:46:51;11.70;99.90
12049;DHT22;6085;49.452;8.502;2023-10-31T18:50:55;11.70;99.90
12049;DHT22;6085;49.452;8.502;2023-10-31T18:54:58;11.70;99.90
12049;DHT22;6085;49.452;8.502;2023-10-31T18:59:00;11.80;99.90
12049;DHT22;6085;49.452;8.502;2023-10-31T19:03:03;11.80;99.90
12049;DHT22;6085;49.452;8.502;2023-10-31T19:07:07;11.80;99.90
12049;DHT22;6085;49.452;8.502;2023-10-31T19:11:09;11.80;99.90
12049;DHT22;6085;49.452;8.502;2023-10-31T19:15:11;11.80;99.90
12049;DHT22;6085;49.452;8.502;2023-10-31T19:19:13;11.80;99.90
12049;DHT22;6085;49.452;8.502;2023-10-31T19:23:16;11.80;99.90
12049;DHT22;6085;49.452;8.502;2023-10-31T19:27:18;11.80;99.90
12049;DHT22;6085;49.452;8.502;2023-10-31T19:31:20;11.70;99.90
12049;DHT22;6085;49.452;8.502;2023-10-31T19:35:24;11.70;99.90
12049;DHT22;6085;49.452;8.502;2023-10-31T19:39:27;11.70;99.90
12049;DHT22;6085;49.452;8.502;2023-10-31T19:43:29;11.70;99.90
12049;DHT22;6085;49.452;8.502;2023-10-31T19:47:34;11.60;99.90
12049;DHT22;6085;49.452;8.502;2023-10-31T19:51:36;11.60;99.90
12049;DHT22;6085;49.452;8.502;2023-10-31T19:55:39;11.50;99.90
12049;DHT22;6085;49.452;8.502;2023-10-31T19:59:44;11.50;99.90
12049;DHT22;6085;49.452;8.502;2023-10-31T20:03:46;11.60;99.90
12049;DHT22;6085;49.452;8.502;2023-10-31T20:07:48;11.70;99.90
12049;DHT22;6085;49.452;8.502;2023-10-31T20:11:52;11.80;99.90
12049;DHT22;6085;49.452;8.502;2023-10-31T20:15:56;11.80;99.90
12049;DHT22;6085;49.452;8.502;2023-10-31T20:20:00;12.00;99.90
12049;DHT22;6085;49.452;8.502;2023-10-31T20:24:03;12.10;99.90
12049;DHT22;6085;49.452;8.502;2023-10-31T20:28:07;12.10;99.90
12049;DHT22;6085;49.452;8.502;2023-10-31T20:32:10;12.20;99.90
12049;DHT22;6085;49.452;8.502;2023-10-31T20:36:13;12.20;99.90
12049;DHT22;6085;49.452;8.502;2023-10-31T20:40:15;12.10;99.90
12049;DHT22;6085;49.452;8.502;2023-10-31T20:44:19;12.00;99.90
12049;DHT22;6085;49.452;8.502;2023-10-31T20:48:24;12.00;99.90
12049;DHT22;6085;49.452;8.502;2023-10-31T20:52:26;12.00;99.90
12049;DHT22;6085;49.452;8.502;2023-10-31T20:56:28;11.90;99.90
12049;DHT22;6085;49.452;8.502;2023-10-31T21:00:34;11.80;99.90
12049;DHT22;6085;49.452;8.502;2023-10-31T21:04:36;11.70;99.90
12049;DHT22;6085;49.452;8.502;2023-10-31T21:08:43;11.60;99.90
12049;DHT22;6085;49.452;8.502;2023-10-31T21:12:46;11.40;99.90
12049;DHT22;6085;49.452;8.502;2023-10-31T21:16:50;11.40;99.90
12049;DHT22;6085;49.452;8.502;2023-10-31T21:20:52;11.30;99.90
12049;DHT22;6085;49.452;8.502;2023-10-31T21:24:54;11.30;99.90
12049;DHT22;6085;49.452;8.502;2023-10-31T21:28:57;11.30;99.90
12049;DHT22;6085;49.452;8.502;2023-10-31T21:33:01;11.30;99.90
12049;DHT22;6085;49.452;8.502;2023-10-31T21:37:03;11.40;99.90
12049;DHT22;6085;49.452;8.502;2023-10-31T21:41:05;11.30;99.90
12049;DHT22;6085;49.452;8.502;2023-10-31T21:45:08;11.30;99.90
12049;DHT22;6085;49.452;8.502;2023-10-31T21:49:11;11.30;99.90
12049;DHT22;6085;49.452;8.502;2023-10-31T21:53:13;11.30;99.90
12049;DHT22;6085;49.452;8.502;2023-10-31T21:57:15;11.30;99.90
12049;DHT22;6085;49.452;8.502;2023-10-31T22:01:17;11.30;99.90
12049;DHT22;6085;49.452;8.502;2023-10-31T22:05:20;11.20;99.90
12049;DHT22;6085;49.452;8.502;2023-10-31T22:09:22;11.20;99.90
12049;DHT22;6085;49.452;8.502;2023-10-31T22:13:25;11.20;99.90
12049;DHT22;6085;49.452;8.502;2023-10-31T22:17:26;11.20;99.90
12049;DHT22;6085;49.452;8.502;2023-10-31T22:21:30;11.20;99.90
12049;DHT22;6085;49.452;8.502;2023-10-31T22:25:32;11.20;99.90
12049;DHT22;6085;49.452;8.502;2023-10-31T22:29:36;11.20;99.90
12049;DHT22;6085;49.452;8.502;2023-10-31T22:33:39;11.10;99.90
12049;DHT22;6085;49.452;8.502;2023-10-31T22:37:42;11.10;99.90
12049;DHT22;6085;49.452;8.502;2023-10-31T22:41:44;11.20;99.90
12049;DHT22;6085;49.452;8.502;2023-10-31T22:45:46;11.20;99.90
12049;DHT22;6085;49.452;8.502;2023-10-31T22:49:48;11.20;99.90
12049;DHT22;6085;49.452;8.502;2023-10-31T22:53:51;11.20;99.90
12049;DHT22;6085;49.452;8.502;2023-10-31T22:57:53;11.30;99.90
12049;DHT22;6085;49.452;8.502;2023-10-31T23:01:55;11.30;99.90
12049;DHT22;6085;49.452;8.502;2023-10-31T23:05:57;11.40;99.90
12049;DHT22;6085;49.452;8.502;2023-10-31T23:10:00;11.40;99.90
12049;DHT22;6085;49.452;8.502;2023-10-31T23:14:02;11.50;99.90
12049;DHT22;6085;49.452;8.502;2023-10-31T23:18:04;11.50;99.90
12049;DHT22;6085;49.452;8.502;2023-10-31T23:22:06;11.50;99.90
12049;DHT22;6085;49.452;8.502;2023-10-31T23:26:09;11.60;99.90
12049;DHT22;6085;49.452;8.502;2023-10-31T23:30:11;11.60;99.90
12049;DHT22;6085;49.452;8.502;2023-10-31T23:34:13;11.60;99.90
12049;DHT22;6085;49.452;8.502;2023-10-31T23:38:16;11.70;99.90
12049;DHT22;6085;49.452;8.502;2023-10-31T23:42:19;11.70;99.90
12049;DHT22;6085;49.452;8.502;2023-10-31T23:46:21;11.70;99.90
12049;DHT22;6085;49.452;8.502;2023-10-31T23:50:23;11.60;99.90
12049;DHT22;6085;49.452;8.502;2023-10-31T23:54:25;11.50;99.90
12049;DHT22;6085;49.452;8.502;2023-10-31T23:58:28;11.50;99.90
